createdAt,value
2018-06-19T00:00:04.327Z,15.87
2018-06-19T00:01:04.363Z,15.87
2018-06-19T00:02:04.396Z,15.94
2018-06-19T00:03:04.430Z,16.02
2018-06-19T00:04:04.464Z,16.07
2018-06-19T00:05:04.499Z,16.11
2018-06-19T00:06:04.532Z,16.17
2018-06-19T00:07:04.567Z,16.28
2018-06-19T00:08:04.604Z,16.28
2018-06-19T00:09:04.636Z,16.31
2018-06-19T00:10:04.670Z,16.28
2018-06-19T00:11:04.704Z,16.42
2018-06-19T00:12:04.737Z,16.41
2018-06-19T00:13:04.773Z,16.34
2018-06-19T00:14:04.809Z,16.49
2018-06-19T00:15:04.841Z,16.49
2018-06-19T00:16:04.878Z,16.53
2018-06-19T00:17:04.910Z,16.53
2018-06-19T00:18:04.948Z,16.53
2018-06-19T00:23:14.197Z,16.57
2018-06-19T00:24:14.233Z,16.52
2018-06-19T00:25:14.266Z,16.52
2018-06-19T00:26:14.299Z,16.43
2018-06-19T00:27:14.334Z,16.39
2018-06-19T00:28:14.367Z,16.43
2018-06-19T00:29:14.403Z,16.38
2018-06-19T00:30:14.436Z,16.45
2018-06-19T00:31:14.469Z,16.41
2018-06-19T00:32:14.506Z,16.49
2018-06-19T00:33:14.540Z,16.49
2018-06-19T00:34:14.573Z,16.52
2018-06-19T00:35:14.608Z,16.52
2018-06-19T00:36:14.643Z,16.58
2018-06-19T00:37:14.677Z,16.50
2018-06-19T00:38:14.711Z,16.56
2018-06-19T00:39:14.745Z,16.64
2018-06-19T00:40:14.780Z,16.66
2018-06-19T00:41:14.815Z,16.66
2018-06-19T00:42:14.848Z,16.64
2018-06-19T00:43:14.883Z,16.67
2018-06-19T00:44:14.917Z,16.57
2018-06-19T00:45:14.955Z,16.60
2018-06-19T00:46:14.986Z,16.70
2018-06-19T00:47:15.021Z,16.56
2018-06-19T00:48:15.064Z,16.53
2018-06-19T00:49:15.090Z,16.57
2018-06-19T00:50:15.124Z,16.58
2018-06-19T00:51:15.159Z,16.52
2018-06-19T00:52:15.193Z,16.56
2018-06-19T00:53:15.227Z,16.58
2018-06-19T00:54:15.261Z,16.56
2018-06-19T00:55:15.297Z,16.53
2018-06-19T00:56:15.332Z,16.53
2018-06-19T00:57:15.365Z,16.52
2018-06-19T00:58:15.400Z,16.64
2018-06-19T00:59:15.435Z,16.58
2018-06-19T01:00:15.469Z,16.60
2018-06-19T01:01:15.505Z,16.64
2018-06-19T01:02:15.537Z,16.68
2018-06-19T01:03:15.574Z,16.71
2018-06-19T01:04:15.608Z,16.78
2018-06-19T01:05:15.643Z,16.71
2018-06-19T01:06:15.676Z,16.66
2018-06-19T01:07:15.713Z,16.53
2018-06-19T01:08:15.747Z,16.66
2018-06-19T01:09:15.782Z,16.66
2018-06-19T01:10:15.816Z,16.71
2018-06-19T01:11:15.850Z,16.81
2018-06-19T01:12:15.886Z,16.83
2018-06-19T01:13:15.920Z,16.81
2018-06-19T01:14:15.956Z,16.81
2018-06-19T01:15:15.990Z,16.83
2018-06-19T01:16:16.028Z,17.01
2018-06-19T01:17:16.063Z,17.06
2018-06-19T01:18:16.095Z,17.06
2018-06-19T01:19:16.129Z,17.07
2018-06-19T01:20:16.165Z,17.18
2018-06-19T01:21:16.200Z,17.16
2018-06-19T01:22:16.234Z,17.08
2018-06-19T01:23:16.272Z,17.06
2018-06-19T01:24:16.304Z,16.94
2018-06-19T01:25:16.339Z,16.94
2018-06-19T01:26:16.374Z,16.82
2018-06-19T01:27:16.410Z,16.78
2018-06-19T01:28:16.444Z,16.70
2018-06-19T01:29:16.479Z,16.70
2018-06-19T01:30:16.512Z,16.64
2018-06-19T01:31:16.547Z,16.70
2018-06-19T01:32:16.583Z,16.57
2018-06-19T01:33:16.619Z,16.57
2018-06-19T01:34:16.653Z,16.58
2018-06-19T01:35:16.689Z,16.57
2018-06-19T01:36:16.723Z,16.68
2018-06-19T01:37:16.757Z,16.67
2018-06-19T01:38:16.845Z,16.71
2018-06-19T01:39:16.828Z,16.76
2018-06-19T01:40:16.863Z,16.70
2018-06-19T01:41:16.898Z,16.76
2018-06-19T01:42:16.931Z,16.79
2018-06-19T01:43:16.967Z,16.83
2018-06-19T01:44:17.002Z,16.82
2018-06-19T01:45:17.037Z,16.76
2018-06-19T01:46:17.072Z,16.81
2018-06-19T01:47:17.107Z,16.86
2018-06-19T01:48:17.142Z,16.82
2018-06-19T01:49:17.178Z,16.79
2018-06-19T01:50:17.212Z,16.96
2018-06-19T01:51:17.246Z,16.94
2018-06-19T01:52:17.285Z,16.81
2018-06-19T01:53:17.318Z,16.91
2018-06-19T01:54:17.352Z,16.93
2018-06-19T01:55:17.387Z,16.96
2018-06-19T01:56:17.422Z,17.00
2018-06-19T01:57:17.456Z,17.03
2018-06-19T01:58:17.490Z,17.00
2018-06-19T01:59:17.526Z,17.01
2018-06-19T02:00:17.564Z,17.01
2018-06-19T02:01:17.597Z,16.97
2018-06-19T02:02:17.634Z,16.97
2018-06-19T02:03:17.665Z,16.82
2018-06-19T02:04:17.700Z,16.93
2018-06-19T02:05:17.735Z,16.79
2018-06-19T02:06:17.771Z,16.68
2018-06-19T02:07:17.806Z,16.68
2018-06-19T02:08:17.845Z,16.75
2018-06-19T02:09:17.877Z,16.68
2018-06-19T02:10:17.929Z,16.75
2018-06-19T02:11:17.949Z,16.73
2018-06-19T02:12:17.981Z,16.79
2018-06-19T02:13:18.017Z,16.76
2018-06-19T02:14:18.050Z,16.63
2018-06-19T02:15:18.085Z,16.70
2018-06-19T02:16:18.119Z,16.67
2018-06-19T02:17:18.154Z,16.66
2018-06-19T02:18:18.189Z,16.63
2018-06-19T02:19:18.223Z,16.64
2018-06-19T02:20:18.263Z,16.73
2018-06-19T02:21:18.294Z,16.66
2018-06-19T02:22:18.327Z,16.68
2018-06-19T02:23:18.362Z,16.76
2018-06-19T02:24:18.399Z,16.71
2018-06-19T02:25:18.432Z,16.66
2018-06-19T02:26:18.467Z,16.63
2018-06-19T02:27:18.500Z,16.67
2018-06-19T02:28:18.537Z,16.63
2018-06-19T02:29:18.574Z,16.70
2018-06-19T02:30:18.606Z,16.67
2018-06-19T02:31:18.640Z,16.71
2018-06-19T02:32:18.675Z,16.67
2018-06-19T02:33:18.712Z,16.60
2018-06-19T02:34:18.744Z,16.67
2018-06-19T02:35:18.780Z,16.66
2018-06-19T02:36:18.815Z,16.66
2018-06-19T02:37:18.860Z,16.64
2018-06-19T02:38:18.883Z,16.58
2018-06-19T02:39:18.919Z,16.58
2018-06-19T02:40:18.959Z,16.58
2018-06-19T02:41:18.991Z,16.61
2018-06-19T02:42:19.021Z,16.60
2018-06-19T02:43:19.058Z,16.64
2018-06-19T02:44:19.101Z,16.68
2018-06-19T02:45:19.126Z,16.70
2018-06-19T02:46:19.161Z,16.79
2018-06-19T02:47:19.195Z,16.85
2018-06-19T02:48:19.235Z,16.81
2018-06-19T02:49:19.265Z,16.96
2018-06-19T02:50:19.299Z,16.98
2018-06-19T02:51:19.333Z,16.97
2018-06-19T02:52:19.368Z,16.88
2018-06-19T02:53:19.403Z,17.07
2018-06-19T02:54:19.437Z,17.11
2018-06-19T02:55:19.472Z,17.04
2018-06-19T02:56:19.507Z,17.11
2018-06-19T02:57:19.541Z,17.06
2018-06-19T02:58:19.576Z,17.16
2018-06-19T02:59:19.610Z,17.15
2018-06-19T03:00:19.708Z,17.07
2018-06-19T03:01:19.680Z,17.12
2018-06-19T03:02:19.719Z,17.16
2018-06-19T03:03:19.753Z,17.07
2018-06-19T03:04:19.784Z,17.15
2018-06-19T03:05:19.818Z,17.06
2018-06-19T03:06:19.853Z,17.16
2018-06-19T03:07:19.888Z,17.14
2018-06-19T03:08:19.923Z,17.21
2018-06-19T03:09:19.958Z,17.23
2018-06-19T03:10:19.991Z,17.23
2018-06-19T03:11:20.027Z,17.19
2018-06-19T03:12:20.061Z,17.26
2018-06-19T03:13:20.101Z,17.22
2018-06-19T03:14:20.130Z,17.22
2018-06-19T03:15:20.164Z,17.28
2018-06-19T03:16:20.201Z,17.25
2018-06-19T03:17:20.235Z,17.25
2018-06-19T03:18:20.270Z,17.25
2018-06-19T03:19:20.305Z,17.31
2018-06-19T03:20:20.339Z,17.23
2018-06-19T03:21:20.387Z,17.33
2018-06-19T03:22:20.408Z,17.26
2018-06-19T03:23:20.447Z,17.36
2018-06-19T03:24:20.479Z,17.34
2018-06-19T03:25:20.514Z,17.38
2018-06-19T03:26:20.548Z,17.40
2018-06-19T03:27:20.583Z,17.41
2018-06-19T03:28:20.616Z,17.37
2018-06-19T03:29:20.652Z,17.38
2018-06-19T03:30:20.816Z,17.40
2018-06-19T03:31:20.721Z,17.40
2018-06-19T03:32:20.761Z,17.44
2018-06-19T03:33:20.791Z,17.49
2018-06-19T03:34:20.825Z,17.41
2018-06-19T03:35:20.860Z,17.48
2018-06-19T03:36:20.895Z,17.36
2018-06-19T03:37:20.933Z,17.46
2018-06-19T03:38:20.965Z,17.48
2018-06-19T03:39:21.001Z,17.40
2018-06-19T03:40:21.035Z,17.43
2018-06-19T03:41:21.071Z,17.38
2018-06-19T03:42:21.108Z,17.37
2018-06-19T03:43:21.140Z,17.37
2018-06-19T03:44:21.173Z,17.25
2018-06-19T03:45:21.209Z,17.25
2018-06-19T03:46:21.243Z,17.25
2018-06-19T03:47:21.280Z,17.23
2018-06-19T03:48:21.314Z,17.31
2018-06-19T03:49:21.349Z,17.26
2018-06-19T03:50:21.384Z,17.30
2018-06-19T03:51:21.417Z,17.23
2018-06-19T03:52:21.454Z,17.19
2018-06-19T03:53:21.488Z,17.18
2018-06-19T03:54:21.522Z,17.22
2018-06-19T03:55:21.557Z,17.23
2018-06-19T03:56:21.596Z,17.26
2018-06-19T03:57:21.628Z,17.19
2018-06-19T03:58:21.661Z,17.21
2018-06-19T03:59:21.697Z,17.30
2018-06-19T04:00:21.732Z,17.34
2018-06-19T04:01:21.786Z,17.38
2018-06-19T04:02:21.804Z,17.38
2018-06-19T04:03:21.837Z,17.34
2018-06-19T04:04:21.873Z,17.44
2018-06-19T04:05:21.908Z,17.46
2018-06-19T04:06:21.943Z,17.55
2018-06-19T04:07:21.981Z,17.55
2018-06-19T04:08:22.012Z,17.56
2018-06-19T04:09:22.048Z,17.54
2018-06-19T04:10:22.099Z,17.48
2018-06-19T04:11:22.117Z,17.33
2018-06-19T04:12:22.151Z,17.33
2018-06-19T04:13:22.187Z,17.38
2018-06-19T04:14:22.223Z,17.36
2018-06-19T04:15:22.256Z,17.43
2018-06-19T04:16:22.293Z,17.48
2018-06-19T04:17:22.328Z,17.58
2018-06-19T04:18:22.362Z,17.56
2018-06-19T04:19:22.398Z,17.48
2018-06-19T04:20:22.434Z,17.63
2018-06-19T04:21:22.470Z,17.56
2018-06-19T04:22:22.504Z,17.63
2018-06-19T04:23:22.539Z,17.66
2018-06-19T04:24:22.573Z,17.70
2018-06-19T04:25:22.609Z,17.59
2018-06-19T04:26:22.644Z,17.59
2018-06-19T04:27:22.679Z,17.55
2018-06-19T04:28:22.714Z,17.58
2018-06-19T04:29:22.752Z,17.55
2018-06-19T04:30:22.784Z,17.63
2018-06-19T04:31:22.820Z,17.64
2018-06-19T04:32:22.856Z,17.74
2018-06-19T04:33:22.951Z,17.71
2018-06-19T04:34:22.926Z,17.90
2018-06-19T04:35:22.962Z,17.79
2018-06-19T04:36:22.997Z,17.79
2018-06-19T04:37:23.033Z,17.82
2018-06-19T04:38:23.069Z,17.78
2018-06-19T04:39:23.106Z,17.87
2018-06-19T04:40:23.138Z,17.90
2018-06-19T04:41:23.175Z,17.95
2018-06-19T04:42:23.208Z,17.95
2018-06-19T04:43:23.246Z,17.97
2018-06-19T04:44:23.280Z,18.00
2018-06-19T04:45:23.319Z,17.99
2018-06-19T04:46:26.177Z,18.02
2018-06-19T04:47:23.389Z,17.96
2018-06-19T04:48:23.422Z,17.97
2018-06-19T04:49:23.464Z,17.96
2018-06-19T04:50:23.497Z,17.95
2018-06-19T04:51:23.530Z,17.95
2018-06-19T04:52:23.566Z,18.05
2018-06-19T04:53:23.602Z,18.07
2018-06-19T04:54:23.637Z,18.10
2018-06-19T04:55:23.675Z,18.20
2018-06-19T04:56:23.710Z,18.17
2018-06-19T04:57:23.746Z,18.27
2018-06-19T04:58:23.780Z,18.30
2018-06-19T04:59:23.817Z,18.33
2018-06-19T05:00:23.854Z,18.36
2018-06-19T05:01:23.888Z,18.30
2018-06-19T05:02:23.925Z,18.27
2018-06-19T05:03:23.960Z,18.42
2018-06-19T05:04:23.997Z,18.51
2018-06-19T05:05:24.032Z,18.52
2018-06-19T05:06:24.069Z,18.65
2018-06-19T05:07:24.104Z,18.75
2018-06-19T05:08:24.141Z,18.81
2018-06-19T05:09:24.179Z,18.81
2018-06-19T05:10:24.212Z,18.76
2018-06-19T05:11:24.247Z,18.84
2018-06-19T05:12:24.285Z,18.84
2018-06-19T05:13:24.320Z,18.90
2018-06-19T05:14:24.356Z,18.90
2018-06-19T05:15:24.393Z,18.91
2018-06-19T05:16:24.429Z,18.90
2018-06-19T05:17:24.467Z,18.98
2018-06-19T05:18:24.501Z,18.85
2018-06-19T05:19:24.538Z,19.02
2018-06-19T05:20:24.579Z,19.07
2018-06-19T05:21:24.611Z,19.23
2018-06-19T05:22:24.645Z,19.28
2018-06-19T05:23:24.684Z,19.33
2018-06-19T05:24:24.720Z,19.48
2018-06-19T05:25:24.757Z,19.51
2018-06-19T05:26:24.791Z,19.51
2018-06-19T05:27:24.830Z,19.55
2018-06-19T05:28:24.865Z,19.74
2018-06-19T05:29:24.903Z,19.80
2018-06-19T05:30:25.026Z,19.88
2018-06-19T05:31:24.975Z,19.96
2018-06-19T05:32:25.013Z,19.91
2018-06-19T05:33:25.049Z,19.91
2018-06-19T05:34:25.086Z,19.86
2018-06-19T05:35:25.121Z,19.96
2018-06-19T05:36:25.160Z,19.96
2018-06-19T05:37:25.198Z,19.87
2018-06-19T05:38:25.233Z,19.84
2018-06-19T05:39:25.271Z,19.80
2018-06-19T05:40:25.306Z,19.87
2018-06-19T05:41:25.343Z,19.78
2018-06-19T05:42:25.379Z,19.92
2018-06-19T05:43:25.417Z,19.83
2018-06-19T05:44:25.455Z,19.99
2018-06-19T05:45:25.492Z,20.16
2018-06-19T05:46:25.528Z,20.35
2018-06-19T05:47:25.565Z,20.48
2018-06-19T05:48:25.602Z,20.51
2018-06-19T05:49:25.645Z,20.62
2018-06-19T05:50:25.676Z,20.54
2018-06-19T05:51:25.714Z,20.51
2018-06-19T05:52:25.751Z,19.99
2018-06-19T05:53:25.789Z,19.81
2018-06-19T05:54:25.826Z,19.74
2018-06-19T05:55:25.863Z,19.59
2018-06-19T05:56:25.901Z,19.54
2018-06-19T05:57:25.939Z,19.74
2018-06-19T05:58:25.975Z,19.87
2018-06-19T05:59:26.015Z,20.06
2018-06-19T06:00:26.050Z,20.10
2018-06-19T06:01:26.091Z,20.36
2018-06-19T06:02:26.127Z,20.50
2018-06-19T06:03:26.162Z,20.62
2018-06-19T06:04:26.200Z,20.76
2018-06-19T06:05:26.237Z,20.76
2018-06-19T06:06:26.275Z,20.87
2018-06-19T06:07:26.312Z,20.88
2018-06-19T06:08:26.351Z,21.07
2018-06-19T06:09:26.391Z,21.01
2018-06-19T06:10:26.427Z,21.04
2018-06-19T06:11:26.463Z,21.21
2018-06-19T06:12:26.502Z,21.24
2018-06-19T06:13:26.540Z,21.38
2018-06-19T06:14:26.577Z,21.56
2018-06-19T06:15:26.617Z,21.77
2018-06-19T06:16:26.693Z,21.82
2018-06-19T06:17:26.691Z,22.00
2018-06-19T06:18:26.728Z,22.09
2018-06-19T06:19:26.766Z,22.17
2018-06-19T06:20:26.805Z,22.28
2018-06-19T06:21:26.842Z,22.43
2018-06-19T06:22:26.880Z,22.52
2018-06-19T06:23:26.922Z,22.57
2018-06-19T06:24:26.956Z,22.61
2018-06-19T06:25:26.997Z,22.68
2018-06-19T06:26:27.033Z,22.72
2018-06-19T06:27:27.072Z,22.82
2018-06-19T06:28:27.109Z,22.73
2018-06-19T06:29:27.152Z,22.73
2018-06-19T06:30:27.187Z,22.82
2018-06-19T06:31:27.303Z,22.77
2018-06-19T06:32:27.264Z,22.83
2018-06-19T06:33:27.302Z,22.72
2018-06-19T06:34:27.340Z,22.57
2018-06-19T06:35:27.378Z,22.67
2018-06-19T06:36:27.422Z,22.65
2018-06-19T06:37:27.456Z,22.70
2018-06-19T06:38:27.493Z,22.67
2018-06-19T06:39:27.532Z,22.83
2018-06-19T06:40:27.570Z,22.95
2018-06-19T06:41:27.609Z,22.90
2018-06-19T06:42:27.664Z,23.00
2018-06-19T06:43:27.686Z,23.31
2018-06-19T06:44:27.745Z,23.42
2018-06-19T06:45:27.787Z,23.42
2018-06-19T06:46:27.828Z,23.38
2018-06-19T06:47:27.863Z,23.48
2018-06-19T06:48:27.880Z,23.58
2018-06-19T06:49:27.920Z,23.47
2018-06-19T06:50:28.018Z,23.54
2018-06-19T06:51:27.996Z,23.43
2018-06-19T06:52:28.034Z,23.53
2018-06-19T06:53:28.075Z,23.65
2018-06-19T06:54:28.114Z,23.73
2018-06-19T06:55:28.152Z,23.84
2018-06-19T06:56:28.191Z,23.69
2018-06-19T06:57:28.231Z,23.72
2018-06-19T06:58:28.268Z,23.84
2018-06-19T06:59:28.306Z,23.73
2018-06-19T07:00:28.346Z,23.83
2018-06-19T07:01:28.386Z,23.53
2018-06-19T07:02:28.423Z,23.66
2018-06-19T07:03:28.463Z,23.69
2018-06-19T07:04:28.501Z,23.75
2018-06-19T07:05:28.541Z,23.90
2018-06-19T07:06:28.580Z,23.90
2018-06-19T07:07:28.619Z,23.91
2018-06-19T07:08:28.658Z,23.90
2018-06-19T07:09:28.697Z,24.00
2018-06-19T07:10:28.737Z,23.90
2018-06-19T07:11:28.775Z,23.95
2018-06-19T07:12:28.815Z,23.90
2018-06-19T07:13:28.896Z,23.68
2018-06-19T07:14:28.893Z,23.46
2018-06-19T07:15:28.933Z,23.54
2018-06-19T07:16:28.973Z,23.42
2018-06-19T07:17:29.011Z,23.28
2018-06-19T07:18:29.049Z,23.40
2018-06-19T07:19:29.111Z,23.51
2018-06-19T07:20:29.128Z,23.57
2018-06-19T07:21:29.169Z,23.70
2018-06-19T07:22:29.246Z,23.79
2018-06-19T07:23:29.245Z,23.87
2018-06-19T07:24:29.287Z,23.97
2018-06-19T07:25:29.324Z,24.02
2018-06-19T07:26:29.363Z,24.06
2018-06-19T07:27:29.403Z,24.18
2018-06-19T07:28:29.443Z,24.21
2018-06-19T07:29:29.481Z,24.16
2018-06-19T07:30:29.520Z,23.97
2018-06-19T07:31:29.560Z,24.12
2018-06-19T07:32:29.600Z,24.09
2018-06-19T07:33:29.639Z,24.06
2018-06-19T07:34:29.677Z,23.97
2018-06-19T07:35:29.718Z,24.02
2018-06-19T07:36:29.759Z,23.98
2018-06-19T07:37:29.796Z,24.06
2018-06-19T07:38:29.836Z,24.18
2018-06-19T07:39:29.875Z,24.06
2018-06-19T07:40:29.914Z,23.88
2018-06-19T07:41:29.953Z,23.98
2018-06-19T07:42:29.993Z,24.02
2018-06-19T07:43:30.033Z,24.03
2018-06-19T07:44:30.076Z,24.15
2018-06-19T07:45:30.111Z,24.34
2018-06-19T07:46:30.151Z,24.22
2018-06-19T07:47:30.190Z,24.27
2018-06-19T07:48:30.230Z,24.31
2018-06-19T07:49:30.315Z,24.31
2018-06-19T07:50:30.309Z,24.28
2018-06-19T07:51:30.346Z,24.34
2018-06-19T07:52:30.386Z,24.35
2018-06-19T07:53:30.426Z,24.37
2018-06-19T07:54:30.464Z,24.37
2018-06-19T07:55:30.540Z,24.58
2018-06-19T07:56:30.543Z,24.67
2018-06-19T07:57:30.583Z,24.77
2018-06-19T07:58:30.621Z,24.71
2018-06-19T07:59:30.661Z,24.69
2018-06-19T08:00:30.701Z,24.71
2018-06-19T08:01:30.741Z,24.90
2018-06-19T08:02:30.781Z,24.83
2018-06-19T08:03:30.822Z,24.65
2018-06-19T08:04:30.859Z,24.31
2018-06-19T08:05:30.899Z,24.37
2018-06-19T08:06:30.938Z,24.58
2018-06-19T08:07:30.978Z,24.68
2018-06-19T08:08:31.023Z,24.98
2018-06-19T08:09:31.057Z,24.90
2018-06-19T08:10:31.096Z,25.10
2018-06-19T08:11:31.140Z,24.99
2018-06-19T08:12:31.180Z,24.90
2018-06-19T08:13:31.239Z,24.98
2018-06-19T08:14:31.256Z,24.96
2018-06-19T08:15:31.297Z,25.09
2018-06-19T08:16:31.335Z,24.91
2018-06-19T08:17:31.375Z,24.85
2018-06-19T08:18:31.414Z,25.15
2018-06-19T08:19:31.454Z,25.18
2018-06-19T08:20:32.510Z,24.67
2018-06-19T08:21:31.534Z,24.55
2018-06-19T08:22:31.572Z,24.40
2018-06-19T08:23:31.613Z,24.27
2018-06-19T08:24:31.654Z,24.32
2018-06-19T08:25:31.692Z,24.31
2018-06-19T08:26:31.731Z,24.35
2018-06-19T08:27:31.772Z,24.61
2018-06-19T08:28:31.819Z,24.83
2018-06-19T08:29:31.854Z,24.69
2018-06-19T08:30:31.891Z,24.99
2018-06-19T08:31:31.931Z,25.18
2018-06-19T08:32:31.970Z,25.40
2018-06-19T08:33:32.011Z,25.67
2018-06-19T08:34:32.051Z,25.80
2018-06-19T08:36:57.197Z,26.12
2018-06-19T08:37:57.237Z,26.37
2018-06-19T08:38:57.278Z,26.47
2018-06-19T08:39:57.317Z,26.48
2018-06-19T08:40:57.360Z,26.60
2018-06-19T08:41:57.398Z,26.44
2018-06-19T08:42:57.439Z,26.43
2018-06-19T08:43:57.479Z,26.29
2018-06-19T08:44:57.520Z,26.25
2018-06-19T08:45:57.561Z,26.29
2018-06-19T08:46:57.604Z,26.44
2018-06-19T08:47:57.643Z,26.60
2018-06-19T08:48:57.683Z,26.66
2018-06-19T08:49:57.724Z,26.60
2018-06-19T08:50:57.765Z,26.36
2018-06-19T08:51:57.804Z,26.13
2018-06-19T08:52:57.846Z,25.92
2018-06-19T08:53:57.888Z,25.55
2018-06-19T08:54:57.928Z,25.39
2018-06-19T08:55:57.969Z,25.40
2018-06-19T08:56:58.011Z,25.39
2018-06-19T08:57:58.056Z,25.15
2018-06-19T08:58:58.093Z,25.38
2018-06-19T08:59:58.133Z,25.27
2018-06-19T09:00:58.173Z,25.27
2018-06-19T09:01:58.215Z,25.39
2018-06-19T09:02:58.256Z,25.30
2018-06-19T09:03:58.296Z,25.24
2018-06-19T09:04:58.338Z,25.25
2018-06-19T09:05:58.379Z,25.39
2018-06-19T09:06:58.420Z,25.58
2018-06-19T09:07:59.289Z,25.72
2018-06-19T09:10:59.613Z,25.65
2018-06-19T09:13:58.724Z,25.92
2018-06-19T09:14:58.748Z,26.33
2018-06-19T09:15:58.788Z,26.52
2018-06-19T09:16:58.828Z,26.55
2018-06-19T09:17:58.870Z,26.51
2018-06-19T09:18:59.336Z,26.77
2018-06-19T09:19:59.014Z,26.85
2018-06-19T09:21:59.056Z,27.32
2018-06-19T09:22:59.076Z,27.47
2018-06-19T09:23:59.117Z,27.88
2018-06-19T09:24:59.158Z,28.02
2018-06-19T09:25:59.226Z,28.14
2018-06-19T09:26:59.242Z,28.14
2018-06-19T09:27:59.282Z,28.31
2018-06-19T09:28:59.330Z,28.46
2018-06-19T09:29:59.367Z,28.62
2018-06-19T09:30:59.409Z,28.81
2018-06-19T09:31:59.449Z,28.89
2018-06-19T09:32:59.493Z,29.15
2018-06-19T09:33:59.535Z,29.21
2018-06-19T09:34:59.578Z,29.12
2018-06-19T09:35:59.619Z,29.12
2018-06-19T09:36:59.661Z,28.88
2018-06-19T09:37:59.703Z,28.29
2018-06-19T09:38:59.746Z,28.54
2018-06-19T09:39:59.795Z,28.49
2018-06-19T09:40:59.832Z,28.76
2018-06-19T09:41:59.875Z,28.81
2018-06-19T09:42:59.918Z,29.09
2018-06-19T09:43:59.959Z,29.02
2018-06-19T09:45:00.002Z,29.21
2018-06-19T09:46:00.046Z,29.33
2018-06-19T09:48:07.711Z,29.31
2018-06-19T09:49:07.755Z,29.42
2018-06-19T09:50:07.797Z,29.36
2018-06-19T09:51:07.839Z,29.51
2018-06-19T09:52:07.882Z,29.49
2018-06-19T09:53:07.928Z,29.46
2018-06-19T09:54:07.970Z,29.53
2018-06-19T09:55:08.013Z,29.60
2018-06-19T09:56:08.057Z,29.70
2018-06-19T09:59:49.046Z,29.18
2018-06-19T10:00:49.091Z,29.18
2018-06-19T10:01:49.132Z,29.14
2018-06-19T10:02:49.175Z,29.28
2018-06-19T10:03:49.224Z,29.36
2018-06-19T10:04:49.261Z,29.12
2018-06-19T10:05:49.305Z,28.98
2018-06-19T10:06:49.349Z,28.96
2018-06-19T10:07:49.391Z,29.26
2018-06-19T10:08:49.436Z,29.60
2018-06-19T10:09:49.478Z,30.02
2018-06-19T10:10:49.522Z,30.07
2018-06-19T10:11:49.606Z,30.13
2018-06-19T10:12:49.612Z,30.04
2018-06-19T10:13:49.653Z,29.85
2018-06-19T10:14:49.697Z,29.42
2018-06-19T10:15:49.740Z,29.33
2018-06-19T10:16:49.786Z,29.63
2018-06-19T10:17:49.828Z,29.64
2018-06-19T10:18:49.870Z,29.85
2018-06-19T10:19:49.918Z,29.82
2018-06-19T10:20:49.961Z,29.78
2018-06-19T10:21:50.002Z,29.71
2018-06-19T10:22:50.049Z,29.55
2018-06-19T10:23:50.094Z,29.71
2018-06-19T10:24:50.136Z,29.68
2018-06-19T10:25:50.177Z,29.65
2018-06-19T10:26:50.223Z,29.61
2018-06-19T10:27:50.267Z,29.71
2018-06-19T10:28:50.311Z,29.82
2018-06-19T10:29:50.354Z,29.76
2018-06-19T10:30:50.398Z,29.37
2018-06-19T10:31:50.442Z,28.93
2018-06-19T10:32:50.486Z,29.36
2018-06-19T10:33:50.528Z,29.48
2018-06-19T10:34:50.596Z,29.42
2018-06-19T10:35:50.616Z,29.43
2018-06-19T10:36:50.660Z,29.55
2018-06-19T10:37:50.707Z,29.53
2018-06-19T10:38:50.747Z,29.21
2018-06-19T10:39:50.791Z,29.98
2018-06-19T10:40:50.835Z,30.73
2018-06-19T10:41:50.880Z,30.89
2018-06-19T10:42:50.922Z,31.02
2018-06-19T10:43:50.967Z,30.91
2018-06-19T10:44:54.039Z,30.99
2018-06-19T10:45:51.131Z,30.83
2018-06-19T10:46:51.104Z,30.19
2018-06-19T10:47:51.151Z,29.83
2018-06-19T10:48:51.190Z,30.43
2018-06-19T10:49:51.235Z,30.64
2018-06-19T10:51:51.326Z,31.46
2018-06-19T10:52:51.372Z,32.66
2018-06-19T10:53:51.415Z,32.97
2018-06-19T10:54:51.664Z,33.21
2018-06-19T10:55:51.508Z,32.69
2018-06-19T10:56:51.554Z,32.44
2018-06-19T10:57:51.599Z,32.32
2018-06-19T10:58:51.679Z,31.91
2018-06-19T10:59:55.124Z,31.92
2018-06-19T11:00:51.739Z,31.72
2018-06-19T11:01:51.786Z,31.88
2018-06-19T11:02:51.832Z,31.69
2018-06-19T11:03:51.877Z,31.76
2018-06-19T11:04:51.925Z,32.04
2018-06-19T11:05:51.971Z,33.86
2018-06-19T11:06:52.018Z,34.12
2018-06-19T11:07:55.495Z,33.63
2018-06-19T11:08:52.112Z,33.61
2018-06-19T11:09:52.157Z,34.03
2018-06-19T11:10:52.205Z,35.31
2018-06-19T11:11:52.252Z,36.23
2018-06-19T11:12:55.530Z,37.06
2018-06-19T11:13:52.348Z,37.44
2018-06-19T11:14:52.396Z,38.12
2018-06-19T11:15:52.448Z,38.50
2018-06-19T11:16:53.914Z,38.96
2018-06-19T11:17:52.546Z,39.47
2018-06-19T11:18:55.221Z,39.38
2018-06-19T11:19:52.675Z,39.89
2018-06-19T11:21:35.271Z,40.25
2018-06-19T11:22:35.336Z,40.38
2018-06-19T11:23:35.369Z,39.62
2018-06-19T11:24:35.424Z,39.13
2018-06-19T11:25:35.527Z,37.37
2018-06-19T11:26:35.530Z,34.87
2018-06-19T11:27:35.583Z,35.97
2018-06-19T11:28:35.654Z,37.07
2018-06-19T11:29:35.696Z,38.11
2018-06-19T11:30:35.747Z,38.93
2018-06-19T11:31:35.802Z,39.59
2018-06-19T11:32:35.856Z,40.01
2018-06-19T11:33:35.911Z,40.42
2018-06-19T11:34:35.968Z,40.64
2018-06-19T11:35:36.026Z,40.26
2018-06-19T11:36:36.110Z,40.99
2018-06-19T11:37:36.134Z,41.04
2018-06-19T11:38:36.222Z,41.20
2018-06-19T11:39:36.247Z,40.70
2018-06-19T11:40:36.303Z,40.92
2018-06-19T11:41:36.360Z,39.82
2018-06-19T11:42:36.416Z,40.16
2018-06-19T11:43:36.474Z,40.45
2018-06-19T11:44:36.533Z,40.39
2018-06-19T11:45:36.588Z,40.65
2018-06-19T11:46:36.643Z,39.52
2018-06-19T11:47:36.700Z,39.77
2018-06-19T11:48:36.757Z,40.00
2018-06-19T11:49:36.815Z,39.86
2018-06-19T11:50:36.871Z,40.35
2018-06-19T11:51:36.930Z,38.84
2018-06-19T11:52:36.986Z,38.60
2018-06-19T11:53:37.048Z,38.41
2018-06-19T11:54:37.160Z,38.38
2018-06-19T11:55:37.160Z,36.50
2018-06-19T11:56:37.217Z,37.28
2018-06-19T11:57:37.274Z,38.38
2018-06-19T11:58:37.332Z,38.78
2018-06-19T11:59:37.390Z,39.78
2018-06-19T12:00:37.445Z,39.73
2018-06-19T12:01:37.503Z,39.17
2018-06-19T12:02:37.562Z,39.18
2018-06-19T12:03:37.619Z,39.81
2018-06-19T12:04:37.676Z,40.26
2018-06-19T12:05:37.735Z,40.23
2018-06-19T12:08:37.906Z,39.36
2018-06-19T12:09:37.964Z,39.62
2018-06-19T12:10:38.022Z,40.18
2018-06-19T12:11:38.081Z,40.45
2018-06-19T12:12:38.137Z,38.75
2018-06-19T12:13:38.194Z,38.74
2018-06-19T12:14:38.254Z,39.29
2018-06-19T12:15:38.312Z,40.12
2018-06-19T12:16:38.369Z,40.32
2018-06-19T12:17:38.425Z,39.70
2018-06-19T12:18:38.512Z,39.28
2018-06-19T12:19:38.542Z,39.43
2018-06-19T12:20:38.598Z,39.59
2018-06-19T12:21:38.656Z,39.48
2018-06-19T12:22:38.717Z,39.44
2018-06-19T12:23:38.774Z,37.57
2018-06-19T12:24:38.831Z,37.60
2018-06-19T12:25:38.889Z,38.47
2018-06-19T12:26:38.948Z,39.17
2018-06-19T12:27:39.005Z,38.52
2018-06-19T12:28:39.062Z,38.44
2018-06-19T12:29:39.135Z,39.07
2018-06-19T12:30:39.179Z,39.26
2018-06-19T12:31:39.238Z,39.66
2018-06-19T12:32:39.295Z,39.72
2018-06-19T12:33:39.352Z,39.14
2018-06-19T12:34:39.411Z,39.13
2018-06-19T12:35:39.470Z,39.04
2018-06-19T12:36:39.526Z,39.17
2018-06-19T12:37:39.585Z,38.76
2018-06-19T12:38:39.642Z,38.56
2018-06-19T12:39:39.701Z,38.13
2018-06-19T12:40:39.757Z,38.20
2018-06-19T12:41:39.925Z,37.60
2018-06-19T12:42:39.897Z,37.79
2018-06-19T12:43:39.933Z,38.34
2018-06-19T12:44:39.990Z,38.96
2018-06-19T12:45:40.067Z,38.79
2018-06-19T12:46:40.123Z,38.42
2018-06-19T12:47:40.184Z,39.06
2018-06-19T12:48:40.242Z,39.40
2018-06-19T12:49:40.296Z,40.18
2018-06-19T12:50:40.363Z,38.32
2018-06-19T12:51:40.393Z,38.95
2018-06-19T12:52:40.653Z,39.26
2018-06-19T12:53:40.509Z,40.06
2018-06-19T12:54:40.891Z,40.32
2018-06-19T12:55:40.643Z,40.31
2018-06-19T12:56:40.680Z,40.35
2018-06-19T12:57:41.062Z,40.88
2018-06-19T12:58:41.020Z,41.36
2018-06-19T13:00:40.912Z,41.89
2018-06-19T13:01:40.969Z,41.42
2018-06-19T13:02:41.027Z,40.92
2018-06-19T13:03:41.084Z,40.46
2018-06-19T13:04:41.141Z,40.61
2018-06-19T13:05:41.198Z,40.60
2018-06-19T13:06:41.255Z,40.18
2018-06-19T13:07:41.317Z,40.58
2018-06-19T13:08:41.370Z,40.70
2018-06-19T13:09:41.427Z,39.45
2018-06-19T13:10:41.484Z,40.23
2018-06-19T13:11:41.542Z,40.96